Terminal Aerodrome Forecast
Issued by NWS Cleveland, OH

Home | Current Version | Previous Version | Text Only | Print | Product List | Glossary On
Versions: 1 2 3 4 5 6 7 8 9 10 11 12 13 14 15 16 17 18 19 20 21
905
FTUS41 KCLE 101522 AAB
TAFTOL
TAF AMD
KTOL 101522Z 1015/1112 28015KT P6SM SCT015 OVC045
      TEMPO 1015/1017 3SM -SHSN BKN015
     FM101700 28015G25KT P6SM VCSH SCT025 OVC035
     FM110400 28010KT P6SM BKN045=

USA.gov is the U.S. government's official web portal to all federal, state and local government web resources and services.